Pagrindinis puslapis
METAR-TAF:

METAR-TAF

Oro uostai :

Brevig Mission, Aliaska, Jungtinės Amerikos Valstijos

platuma: 65-19-53N, ilguma: 166-27-57W, Aukštis: 11 m

Dabartinis oras

Ataskaita buvo paskelbta 31 minutes, ne 18:56 UTC
Vėjas 4 kt iš Rytų
Temperatūra -5°C
Drėgmė 93%
Slėgis 1024 hPa
Matomumas: 16.1 km
Giedras dangus

METAR: PFKT 281856Z AUTO 08004KT 10SM CLR M05/M06 A3023 RMK AO2 SLPNO T10501061 FZRANO

Laikas: 11:27 (19:27 UTC)


TAF: trūkstamas

Orai ataskaitas ir orų prognozės (METAR, TAF).

turimą stotys yra geltonos ir raudonos taškus žemėlapyje.

Perkelti pele per norėdami pamatyti stoties vardą.

Tada spustelėkite, norėdami matyti oro stebėjimo ir prognozės.

Norėdami pakeisti žemėlapį: spustelėkite ant žalios mygtukų su juodo kryžiaus žemyn,; žalią mygtuką su brūkšneliu, jei norite nutolinti; arba žalių rodyklių gretimoms žemėlapius.


METAR-TAF: